sensor_id;sensor_type;location;lat;lon;timestamp;P1;durP1;ratioP1;P2;durP2;ratioP2
64875;SDS011;51369;49.862;9.908;2022-08-19T00:01:15;33.47;;;24.95;;
64875;SDS011;51369;49.862;9.908;2022-08-19T00:03:41;32.05;;;25.55;;
64875;SDS011;51369;49.862;9.908;2022-08-19T00:06:06;35.33;;;25.67;;
64875;SDS011;51369;49.862;9.908;2022-08-19T00:08:31;35.60;;;26.02;;
64875;SDS011;51369;49.862;9.908;2022-08-19T00:10:57;35.38;;;26.40;;
64875;SDS011;51369;49.862;9.908;2022-08-19T00:13:23;33.92;;;25.85;;
64875;SDS011;51369;49.862;9.908;2022-08-19T00:15:48;35.17;;;26.08;;
64875;SDS011;51369;49.862;9.908;2022-08-19T00:18:13;34.13;;;26.02;;
64875;SDS011;51369;49.862;9.908;2022-08-19T00:20:39;32.47;;;25.17;;
64875;SDS011;51369;49.862;9.908;2022-08-19T00:23:06;37.83;;;26.60;;
64875;SDS011;51369;49.862;9.908;2022-08-19T00:25:32;34.28;;;25.17;;
64875;SDS011;51369;49.862;9.908;2022-08-19T00:27:58;33.78;;;25.55;;
64875;SDS011;51369;49.862;9.908;2022-08-19T00:30:24;34.17;;;24.73;;
64875;SDS011;51369;49.862;9.908;2022-08-19T00:32:49;34.05;;;25.23;;
64875;SDS011;51369;49.862;9.908;2022-08-19T00:35:15;33.67;;;25.63;;
64875;SDS011;51369;49.862;9.908;2022-08-19T00:37:42;34.58;;;24.77;;
64875;SDS011;51369;49.862;9.908;2022-08-19T00:40:08;30.30;;;24.58;;
64875;SDS011;51369;49.862;9.908;2022-08-19T00:42:34;31.27;;;24.52;;
64875;SDS011;51369;49.862;9.908;2022-08-19T00:45:00;33.72;;;23.98;;
64875;SDS011;51369;49.862;9.908;2022-08-19T00:47:26;32.97;;;25.30;;
64875;SDS011;51369;49.862;9.908;2022-08-19T00:49:54;31.48;;;23.98;;
64875;SDS011;51369;49.862;9.908;2022-08-19T00:52:29;34.00;;;26.05;;
64875;SDS011;51369;49.862;9.908;2022-08-19T00:54:59;30.25;;;22.65;;
64875;SDS011;51369;49.862;9.908;2022-08-19T00:57:30;31.25;;;24.40;;
64875;SDS011;51369;49.862;9.908;2022-08-19T00:59:59;30.35;;;23.95;;
64875;SDS011;51369;49.862;9.908;2022-08-19T01:02:27;32.53;;;24.67;;
64875;SDS011;51369;49.862;9.908;2022-08-19T01:04:54;30.95;;;23.58;;
64875;SDS011;51369;49.862;9.908;2022-08-19T01:07:20;33.67;;;24.95;;
64875;SDS011;51369;49.862;9.908;2022-08-19T01:09:46;31.40;;;23.05;;
64875;SDS011;51369;49.862;9.908;2022-08-19T01:12:12;32.47;;;23.58;;
64875;SDS011;51369;49.862;9.908;2022-08-19T01:14:38;31.48;;;22.73;;
64875;SDS011;51369;49.862;9.908;2022-08-19T01:17:06;32.88;;;24.23;;
64875;SDS011;51369;49.862;9.908;2022-08-19T01:19:35;30.55;;;23.20;;
64875;SDS011;51369;49.862;9.908;2022-08-19T01:22:08;34.30;;;23.80;;
64875;SDS011;51369;49.862;9.908;2022-08-19T01:24:39;32.58;;;22.83;;
64875;SDS011;51369;49.862;9.908;2022-08-19T01:27:05;29.00;;;22.58;;
64875;SDS011;51369;49.862;9.908;2022-08-19T01:29:30;31.15;;;23.52;;
64875;SDS011;51369;49.862;9.908;2022-08-19T01:31:57;29.73;;;22.20;;
64875;SDS011;51369;49.862;9.908;2022-08-19T01:34:22;30.38;;;24.00;;
64875;SDS011;51369;49.862;9.908;2022-08-19T01:36:48;32.38;;;23.52;;
64875;SDS011;51369;49.862;9.908;2022-08-19T01:39:17;28.10;;;22.83;;
64875;SDS011;51369;49.862;9.908;2022-08-19T01:41:46;30.10;;;21.88;;
64875;SDS011;51369;49.862;9.908;2022-08-19T01:44:12;32.05;;;23.98;;
64875;SDS011;51369;49.862;9.908;2022-08-19T01:46:38;31.02;;;24.48;;
64875;SDS011;51369;49.862;9.908;2022-08-19T01:49:04;30.58;;;24.13;;
64875;SDS011;51369;49.862;9.908;2022-08-19T01:51:31;30.88;;;23.67;;
64875;SDS011;51369;49.862;9.908;2022-08-19T01:53:56;30.58;;;23.23;;
64875;SDS011;51369;49.862;9.908;2022-08-19T01:56:23;31.85;;;22.98;;
64875;SDS011;51369;49.862;9.908;2022-08-19T01:58:51;29.33;;;21.55;;
64875;SDS011;51369;49.862;9.908;2022-08-19T02:01:26;31.25;;;23.20;;
64875;SDS011;51369;49.862;9.908;2022-08-19T02:03:52;35.40;;;24.42;;
64875;SDS011;51369;49.862;9.908;2022-08-19T02:06:20;30.90;;;24.90;;
64875;SDS011;51369;49.862;9.908;2022-08-19T02:08:45;33.50;;;24.13;;
64875;SDS011;51369;49.862;9.908;2022-08-19T02:11:17;29.65;;;23.20;;
64875;SDS011;51369;49.862;9.908;2022-08-19T02:13:48;28.98;;;23.70;;
64875;SDS011;51369;49.862;9.908;2022-08-19T02:16:15;30.25;;;22.25;;
64875;SDS011;51369;49.862;9.908;2022-08-19T02:18:42;29.40;;;22.95;;
64875;SDS011;51369;49.862;9.908;2022-08-19T02:21:07;32.50;;;23.30;;
64875;SDS011;51369;49.862;9.908;2022-08-19T02:23:33;32.38;;;23.20;;
64875;SDS011;51369;49.862;9.908;2022-08-19T02:25:58;31.30;;;21.83;;
64875;SDS011;51369;49.862;9.908;2022-08-19T02:28:23;29.77;;;22.15;;
64875;SDS011;51369;49.862;9.908;2022-08-19T02:30:49;30.77;;;23.25;;
64875;SDS011;51369;49.862;9.908;2022-08-19T02:33:14;32.58;;;23.20;;
64875;SDS011;51369;49.862;9.908;2022-08-19T02:35:42;30.15;;;22.92;;
64875;SDS011;51369;49.862;9.908;2022-08-19T02:38:08;34.50;;;24.10;;
64875;SDS011;51369;49.862;9.908;2022-08-19T02:40:53;31.23;;;22.85;;
64875;SDS011;51369;49.862;9.908;2022-08-19T02:43:22;35.45;;;23.30;;
64875;SDS011;51369;49.862;9.908;2022-08-19T02:45:49;29.95;;;23.38;;
64875;SDS011;51369;49.862;9.908;2022-08-19T02:48:15;33.65;;;23.25;;
64875;SDS011;51369;49.862;9.908;2022-08-19T02:50:42;33.60;;;24.27;;
64875;SDS011;51369;49.862;9.908;2022-08-19T02:53:08;31.08;;;23.75;;
64875;SDS011;51369;49.862;9.908;2022-08-19T02:55:33;32.30;;;23.90;;
64875;SDS011;51369;49.862;9.908;2022-08-19T02:57:59;33.33;;;23.40;;
64875;SDS011;51369;49.862;9.908;2022-08-19T03:00:25;30.40;;;23.08;;
64875;SDS011;51369;49.862;9.908;2022-08-19T03:02:51;30.48;;;23.42;;
64875;SDS011;51369;49.862;9.908;2022-08-19T03:05:17;28.98;;;21.67;;
64875;SDS011;51369;49.862;9.908;2022-08-19T03:07:43;30.83;;;21.10;;
64875;SDS011;51369;49.862;9.908;2022-08-19T03:10:08;29.80;;;22.58;;
64875;SDS011;51369;49.862;9.908;2022-08-19T03:12:35;30.27;;;22.33;;
64875;SDS011;51369;49.862;9.908;2022-08-19T03:15:03;26.08;;;21.38;;
64875;SDS011;51369;49.862;9.908;2022-08-19T03:17:30;31.10;;;23.20;;
64875;SDS011;51369;49.862;9.908;2022-08-19T03:19:55;26.38;;;21.30;;
64875;SDS011;51369;49.862;9.908;2022-08-19T03:22:21;28.95;;;22.00;;
64875;SDS011;51369;49.862;9.908;2022-08-19T03:24:46;28.83;;;21.42;;
64875;SDS011;51369;49.862;9.908;2022-08-19T03:27:12;33.40;;;23.05;;
64875;SDS011;51369;49.862;9.908;2022-08-19T03:29:39;32.72;;;22.33;;
64875;SDS011;51369;49.862;9.908;2022-08-19T03:32:05;31.27;;;22.60;;
64875;SDS011;51369;49.862;9.908;2022-08-19T03:34:32;28.92;;;22.05;;
64875;SDS011;51369;49.862;9.908;2022-08-19T03:37:02;30.67;;;23.45;;
64875;SDS011;51369;49.862;9.908;2022-08-19T03:39:30;28.48;;;22.60;;
64875;SDS011;51369;49.862;9.908;2022-08-19T03:41:56;26.90;;;22.17;;
64875;SDS011;51369;49.862;9.908;2022-08-19T03:44:23;29.50;;;23.15;;
64875;SDS011;51369;49.862;9.908;2022-08-19T03:46:51;30.25;;;22.92;;
64875;SDS011;51369;49.862;9.908;2022-08-19T03:49:18;31.42;;;22.95;;
64875;SDS011;51369;49.862;9.908;2022-08-19T03:51:45;30.65;;;22.77;;
64875;SDS011;51369;49.862;9.908;2022-08-19T03:54:13;30.02;;;21.98;;
64875;SDS011;51369;49.862;9.908;2022-08-19T03:56:41;27.00;;;21.38;;
64875;SDS011;51369;49.862;9.908;2022-08-19T03:59:14;29.23;;;22.52;;
64875;SDS011;51369;49.862;9.908;2022-08-19T04:01:42;29.85;;;23.10;;
64875;SDS011;51369;49.862;9.908;2022-08-19T04:04:08;29.00;;;21.75;;
64875;SDS011;51369;49.862;9.908;2022-08-19T04:06:34;28.92;;;22.23;;
64875;SDS011;51369;49.862;9.908;2022-08-19T04:09:03;28.88;;;22.55;;
64875;SDS011;51369;49.862;9.908;2022-08-19T04:11:43;28.70;;;23.05;;
64875;SDS011;51369;49.862;9.908;2022-08-19T04:14:11;27.40;;;21.73;;
64875;SDS011;51369;49.862;9.908;2022-08-19T04:16:40;29.98;;;22.83;;
64875;SDS011;51369;49.862;9.908;2022-08-19T04:19:08;29.17;;;22.52;;
64875;SDS011;51369;49.862;9.908;2022-08-19T04:21:34;32.33;;;23.40;;
64875;SDS011;51369;49.862;9.908;2022-08-19T04:23:59;29.67;;;21.40;;
64875;SDS011;51369;49.862;9.908;2022-08-19T04:26:28;33.50;;;23.35;;
64875;SDS011;51369;49.862;9.908;2022-08-19T04:28:59;32.38;;;23.30;;
64875;SDS011;51369;49.862;9.908;2022-08-19T04:31:27;32.08;;;22.92;;
64875;SDS011;51369;49.862;9.908;2022-08-19T04:33:55;30.10;;;22.75;;
64875;SDS011;51369;49.862;9.908;2022-08-19T04:36:23;33.95;;;23.73;;
64875;SDS011;51369;49.862;9.908;2022-08-19T04:38:53;30.52;;;23.20;;
64875;SDS011;51369;49.862;9.908;2022-08-19T04:41:20;28.83;;;22.63;;
64875;SDS011;51369;49.862;9.908;2022-08-19T04:44:04;30.15;;;22.17;;
64875;SDS011;51369;49.862;9.908;2022-08-19T04:46:30;30.60;;;22.33;;
64875;SDS011;51369;49.862;9.908;2022-08-19T04:48:57;28.75;;;20.33;;
64875;SDS011;51369;49.862;9.908;2022-08-19T04:51:24;34.80;;;23.13;;
64875;SDS011;51369;49.862;9.908;2022-08-19T04:53:49;27.15;;;21.65;;
64875;SDS011;51369;49.862;9.908;2022-08-19T04:56:16;32.40;;;21.52;;
64875;SDS011;51369;49.862;9.908;2022-08-19T04:58:44;28.80;;;20.80;;
64875;SDS011;51369;49.862;9.908;2022-08-19T05:01:15;27.20;;;20.70;;
64875;SDS011;51369;49.862;9.908;2022-08-19T05:03:44;26.08;;;21.13;;
64875;SDS011;51369;49.862;9.908;2022-08-19T05:06:11;27.27;;;22.27;;
64875;SDS011;51369;49.862;9.908;2022-08-19T05:08:38;29.23;;;21.15;;
64875;SDS011;51369;49.862;9.908;2022-08-19T05:11:13;28.67;;;21.98;;
64875;SDS011;51369;49.862;9.908;2022-08-19T05:13:39;26.38;;;20.13;;
64875;SDS011;51369;49.862;9.908;2022-08-19T05:16:05;27.13;;;20.88;;
64875;SDS011;51369;49.862;9.908;2022-08-19T05:18:30;28.13;;;20.25;;
64875;SDS011;51369;49.862;9.908;2022-08-19T05:21:16;37.78;;;22.15;;
64875;SDS011;51369;49.862;9.908;2022-08-19T05:24:02;27.63;;;19.02;;
64875;SDS011;51369;49.862;9.908;2022-08-19T05:26:28;25.85;;;19.52;;
64875;SDS011;51369;49.862;9.908;2022-08-19T05:28:53;25.30;;;19.75;;
64875;SDS011;51369;49.862;9.908;2022-08-19T05:31:20;26.67;;;19.10;;
64875;SDS011;51369;49.862;9.908;2022-08-19T05:33:45;24.35;;;19.02;;
64875;SDS011;51369;49.862;9.908;2022-08-19T05:36:11;26.85;;;18.92;;
64875;SDS011;51369;49.862;9.908;2022-08-19T05:38:37;30.23;;;20.70;;
64875;SDS011;51369;49.862;9.908;2022-08-19T05:41:12;27.33;;;18.92;;
64875;SDS011;51369;49.862;9.908;2022-08-19T05:43:40;27.20;;;20.85;;
64875;SDS011;51369;49.862;9.908;2022-08-19T05:46:06;31.25;;;19.27;;
64875;SDS011;51369;49.862;9.908;2022-08-19T05:48:33;24.02;;;19.02;;
64875;SDS011;51369;49.862;9.908;2022-08-19T05:51:03;23.38;;;18.70;;
64875;SDS011;51369;49.862;9.908;2022-08-19T05:53:33;22.90;;;19.33;;
64875;SDS011;51369;49.862;9.908;2022-08-19T05:56:05;24.20;;;18.80;;
64875;SDS011;51369;49.862;9.908;2022-08-19T05:58:36;25.63;;;19.13;;
64875;SDS011;51369;49.862;9.908;2022-08-19T06:01:02;25.15;;;18.60;;
64875;SDS011;51369;49.862;9.908;2022-08-19T06:03:31;24.85;;;18.02;;
64875;SDS011;51369;49.862;9.908;2022-08-19T06:05:58;24.92;;;19.25;;
64875;SDS011;51369;49.862;9.908;2022-08-19T06:08:24;23.15;;;16.90;;
64875;SDS011;51369;49.862;9.908;2022-08-19T06:10:50;24.95;;;17.90;;
64875;SDS011;51369;49.862;9.908;2022-08-19T06:13:16;25.33;;;19.05;;
64875;SDS011;51369;49.862;9.908;2022-08-19T06:15:44;25.80;;;18.48;;
64875;SDS011;51369;49.862;9.908;2022-08-19T06:18:12;27.05;;;18.30;;
64875;SDS011;51369;49.862;9.908;2022-08-19T06:20:38;23.25;;;17.20;;
64875;SDS011;51369;49.862;9.908;2022-08-19T06:23:04;24.63;;;18.13;;
64875;SDS011;51369;49.862;9.908;2022-08-19T06:25:29;23.48;;;17.75;;
64875;SDS011;51369;49.862;9.908;2022-08-19T06:27:55;24.83;;;19.73;;
64875;SDS011;51369;49.862;9.908;2022-08-19T06:30:21;22.83;;;17.42;;
64875;SDS011;51369;49.862;9.908;2022-08-19T06:32:47;24.45;;;16.88;;
64875;SDS011;51369;49.862;9.908;2022-08-19T06:35:12;24.63;;;17.02;;
64875;SDS011;51369;49.862;9.908;2022-08-19T06:37:40;21.83;;;17.88;;
64875;SDS011;51369;49.862;9.908;2022-08-19T06:40:06;22.65;;;17.85;;
64875;SDS011;51369;49.862;9.908;2022-08-19T06:42:33;21.67;;;17.42;;
64875;SDS011;51369;49.862;9.908;2022-08-19T06:45:01;25.02;;;17.83;;
64875;SDS011;51369;49.862;9.908;2022-08-19T06:47:29;24.52;;;19.00;;
64875;SDS011;51369;49.862;9.908;2022-08-19T06:49:57;23.08;;;16.98;;
64875;SDS011;51369;49.862;9.908;2022-08-19T06:52:31;28.75;;;18.90;;
64875;SDS011;51369;49.862;9.908;2022-08-19T06:54:59;22.85;;;17.95;;
64875;SDS011;51369;49.862;9.908;2022-08-19T06:57:26;25.23;;;18.33;;
64875;SDS011;51369;49.862;9.908;2022-08-19T06:59:52;24.30;;;18.73;;
64875;SDS011;51369;49.862;9.908;2022-08-19T07:02:18;25.33;;;18.83;;
64875;SDS011;51369;49.862;9.908;2022-08-19T07:04:45;23.10;;;18.80;;
64875;SDS011;51369;49.862;9.908;2022-08-19T07:07:12;25.48;;;19.02;;
64875;SDS011;51369;49.862;9.908;2022-08-19T07:09:39;27.20;;;19.45;;
64875;SDS011;51369;49.862;9.908;2022-08-19T07:12:08;30.98;;;19.40;;
64875;SDS011;51369;49.862;9.908;2022-08-19T07:14:36;24.08;;;17.35;;
64875;SDS011;51369;49.862;9.908;2022-08-19T07:17:04;25.90;;;18.33;;
64875;SDS011;51369;49.862;9.908;2022-08-19T07:19:32;21.35;;;17.20;;
64875;SDS011;51369;49.862;9.908;2022-08-19T07:21:58;25.60;;;19.38;;
64875;SDS011;51369;49.862;9.908;2022-08-19T07:24:27;21.83;;;18.45;;
64875;SDS011;51369;49.862;9.908;2022-08-19T07:26:53;22.77;;;17.08;;
64875;SDS011;51369;49.862;9.908;2022-08-19T07:29:21;19.48;;;17.00;;
64875;SDS011;51369;49.862;9.908;2022-08-19T07:31:49;23.23;;;17.92;;
64875;SDS011;51369;49.862;9.908;2022-08-19T07:34:15;25.70;;;18.27;;
64875;SDS011;51369;49.862;9.908;2022-08-19T07:36:41;22.60;;;18.20;;
64875;SDS011;51369;49.862;9.908;2022-08-19T07:39:10;23.95;;;17.20;;
64875;SDS011;51369;49.862;9.908;2022-08-19T07:41:41;20.88;;;18.67;;
64875;SDS011;51369;49.862;9.908;2022-08-19T07:44:08;20.30;;;17.38;;
64875;SDS011;51369;49.862;9.908;2022-08-19T07:46:35;21.90;;;17.33;;
64875;SDS011;51369;49.862;9.908;2022-08-19T07:49:03;25.20;;;18.08;;
64875;SDS011;51369;49.862;9.908;2022-08-19T07:51:30;19.30;;;16.67;;
64875;SDS011;51369;49.862;9.908;2022-08-19T07:53:56;21.75;;;16.83;;
64875;SDS011;51369;49.862;9.908;2022-08-19T07:56:22;25.27;;;17.55;;
64875;SDS011;51369;49.862;9.908;2022-08-19T07:58:49;24.25;;;17.67;;
64875;SDS011;51369;49.862;9.908;2022-08-19T08:01:19;20.45;;;16.70;;
64875;SDS011;51369;49.862;9.908;2022-08-19T08:03:49;27.27;;;19.48;;
64875;SDS011;51369;49.862;9.908;2022-08-19T08:06:34;23.85;;;16.95;;
64875;SDS011;51369;49.862;9.908;2022-08-19T08:09:21;23.92;;;17.67;;
64875;SDS011;51369;49.862;9.908;2022-08-19T08:11:55;18.42;;;15.98;;
64875;SDS011;51369;49.862;9.908;2022-08-19T08:14:29;18.00;;;15.57;;
64875;SDS011;51369;49.862;9.908;2022-08-19T08:16:58;27.30;;;17.40;;
64875;SDS011;51369;49.862;9.908;2022-08-19T08:19:24;21.65;;;15.95;;
64875;SDS011;51369;49.862;9.908;2022-08-19T08:21:51;20.63;;;16.55;;
64875;SDS011;51369;49.862;9.908;2022-08-19T08:24:22;18.48;;;16.02;;
64875;SDS011;51369;49.862;9.908;2022-08-19T08:26:48;21.98;;;16.33;;
64875;SDS011;51369;49.862;9.908;2022-08-19T08:29:14;19.67;;;15.18;;
64875;SDS011;51369;49.862;9.908;2022-08-19T08:31:40;21.08;;;16.83;;
64875;SDS011;51369;49.862;9.908;2022-08-19T08:34:08;25.50;;;15.02;;
64875;SDS011;51369;49.862;9.908;2022-08-19T08:36:38;22.83;;;15.35;;
64875;SDS011;51369;49.862;9.908;2022-08-19T08:39:08;20.17;;;14.48;;
64875;SDS011;51369;49.862;9.908;2022-08-19T08:41:38;18.58;;;15.30;;
64875;SDS011;51369;49.862;9.908;2022-08-19T08:45:10;19.55;;;15.60;;
64875;SDS011;51369;49.862;9.908;2022-08-19T08:47:12;18.10;;;14.98;;
64875;SDS011;51369;49.862;9.908;2022-08-19T08:49:43;16.83;;;14.45;;
64875;SDS011;51369;49.862;9.908;2022-08-19T08:52:15;17.42;;;14.57;;
64875;SDS011;51369;49.862;9.908;2022-08-19T08:54:47;17.60;;;15.40;;
64875;SDS011;51369;49.862;9.908;2022-08-19T08:58:03;20.63;;;15.02;;
64875;SDS011;51369;49.862;9.908;2022-08-19T09:00:19;15.55;;;13.93;;
64875;SDS011;51369;49.862;9.908;2022-08-19T09:03:09;17.92;;;13.60;;
64875;SDS011;51369;49.862;9.908;2022-08-19T09:11:24;14.85;;;13.27;;
64875;SDS011;51369;49.862;9.908;2022-08-19T09:16:47;17.45;;;13.57;;
64875;SDS011;51369;49.862;9.908;2022-08-19T09:19:14;15.88;;;12.90;;
64875;SDS011;51369;49.862;9.908;2022-08-19T09:21:42;16.52;;;13.30;;
64875;SDS011;51369;49.862;9.908;2022-08-19T09:24:08;15.32;;;12.18;;
64875;SDS011;51369;49.862;9.908;2022-08-19T09:26:33;14.13;;;12.07;;
64875;SDS011;51369;49.862;9.908;2022-08-19T09:29:00;15.63;;;11.52;;
64875;SDS011;51369;49.862;9.908;2022-08-19T09:31:28;13.18;;;10.68;;
64875;SDS011;51369;49.862;9.908;2022-08-19T09:33:55;12.68;;;10.40;;
64875;SDS011;51369;49.862;9.908;2022-08-19T09:36:25;13.20;;;9.85;;
64875;SDS011;51369;49.862;9.908;2022-08-19T09:38:54;10.75;;;8.88;;
64875;SDS011;51369;49.862;9.908;2022-08-19T09:41:21;14.23;;;8.68;;
64875;SDS011;51369;49.862;9.908;2022-08-19T09:43:49;10.18;;;8.95;;
64875;SDS011;51369;49.862;9.908;2022-08-19T09:46:21;15.45;;;8.75;;
64875;SDS011;51369;49.862;9.908;2022-08-19T09:48:49;11.30;;;9.07;;
64875;SDS011;51369;49.862;9.908;2022-08-19T09:51:17;14.45;;;8.70;;
64875;SDS011;51369;49.862;9.908;2022-08-19T09:53:51;10.63;;;7.70;;
64875;SDS011;51369;49.862;9.908;2022-08-19T09:56:19;9.60;;;7.47;;
64875;SDS011;51369;49.862;9.908;2022-08-19T09:58:46;9.52;;;7.63;;
64875;SDS011;51369;49.862;9.908;2022-08-19T10:01:20;11.88;;;8.40;;
64875;SDS011;51369;49.862;9.908;2022-08-19T10:03:52;8.63;;;7.25;;
64875;SDS011;51369;49.862;9.908;2022-08-19T10:06:22;8.63;;;7.20;;
64875;SDS011;51369;49.862;9.908;2022-08-19T10:08:49;11.20;;;7.70;;
64875;SDS011;51369;49.862;9.908;2022-08-19T10:11:17;7.60;;;6.82;;
64875;SDS011;51369;49.862;9.908;2022-08-19T10:13:45;10.70;;;6.55;;
64875;SDS011;51369;49.862;9.908;2022-08-19T10:16:12;8.82;;;6.70;;
64875;SDS011;51369;49.862;9.908;2022-08-19T10:18:41;9.30;;;5.45;;
64875;SDS011;51369;49.862;9.908;2022-08-19T10:21:13;7.45;;;6.05;;
64875;SDS011;51369;49.862;9.908;2022-08-19T10:23:45;7.80;;;5.10;;
64875;SDS011;51369;49.862;9.908;2022-08-19T10:26:14;6.30;;;5.05;;
64875;SDS011;51369;49.862;9.908;2022-08-19T10:28:44;5.67;;;4.77;;
64875;SDS011;51369;49.862;9.908;2022-08-19T10:31:11;5.93;;;4.88;;
64875;SDS011;51369;49.862;9.908;2022-08-19T10:33:38;5.97;;;5.38;;
64875;SDS011;51369;49.862;9.908;2022-08-19T10:36:09;8.05;;;5.30;;
64875;SDS011;51369;49.862;9.908;2022-08-19T10:41:21;5.68;;;4.90;;
64875;SDS011;51369;49.862;9.908;2022-08-19T10:43:52;8.07;;;5.28;;
64875;SDS011;51369;49.862;9.908;2022-08-19T10:46:20;8.75;;;5.22;;
64875;SDS011;51369;49.862;9.908;2022-08-19T10:48:47;6.60;;;4.45;;
64875;SDS011;51369;49.862;9.908;2022-08-19T10:51:12;4.97;;;4.18;;
64875;SDS011;51369;49.862;9.908;2022-08-19T10:53:57;7.07;;;4.63;;
64875;SDS011;51369;49.862;9.908;2022-08-19T10:56:23;8.00;;;4.93;;
64875;SDS011;51369;49.862;9.908;2022-08-19T10:59:08;7.80;;;4.72;;
64875;SDS011;51369;49.862;9.908;2022-08-19T11:01:34;7.00;;;4.22;;
64875;SDS011;51369;49.862;9.908;2022-08-19T11:04:01;5.65;;;4.45;;
64875;SDS011;51369;49.862;9.908;2022-08-19T11:06:28;5.57;;;4.88;;
64875;SDS011;51369;49.862;9.908;2022-08-19T11:08:55;6.00;;;4.55;;
64875;SDS011;51369;49.862;9.908;2022-08-19T11:11:21;6.55;;;4.85;;
64875;SDS011;51369;49.862;9.908;2022-08-19T11:13:47;6.55;;;4.88;;
64875;SDS011;51369;49.862;9.908;2022-08-19T11:16:17;5.22;;;4.72;;
64875;SDS011;51369;49.862;9.908;2022-08-19T11:18:46;7.05;;;5.40;;
64875;SDS011;51369;49.862;9.908;2022-08-19T11:21:17;11.30;;;5.90;;
64875;SDS011;51369;49.862;9.908;2022-08-19T11:23:48;7.30;;;4.85;;
64875;SDS011;51369;49.862;9.908;2022-08-19T11:26:16;6.10;;;4.43;;
64875;SDS011;51369;49.862;9.908;2022-08-19T11:28:43;6.60;;;5.35;;
64875;SDS011;51369;49.862;9.908;2022-08-19T11:31:15;5.32;;;4.53;;
64875;SDS011;51369;49.862;9.908;2022-08-19T11:33:42;4.88;;;4.40;;
64875;SDS011;51369;49.862;9.908;2022-08-19T11:36:09;5.90;;;3.90;;
64875;SDS011;51369;49.862;9.908;2022-08-19T11:38:36;4.32;;;3.92;;
64875;SDS011;51369;49.862;9.908;2022-08-19T11:41:03;5.13;;;4.63;;
64875;SDS011;51369;49.862;9.908;2022-08-19T11:43:33;6.20;;;4.32;;
64875;SDS011;51369;49.862;9.908;2022-08-19T11:45:59;5.25;;;3.45;;
64875;SDS011;51369;49.862;9.908;2022-08-19T11:48:31;4.05;;;3.75;;
64875;SDS011;51369;49.862;9.908;2022-08-19T11:50:56;5.43;;;4.20;;
64875;SDS011;51369;49.862;9.908;2022-08-19T11:53:22;6.72;;;4.55;;
64875;SDS011;51369;49.862;9.908;2022-08-19T11:55:49;5.32;;;4.30;;
64875;SDS011;51369;49.862;9.908;2022-08-19T11:58:15;8.38;;;4.55;;
64875;SDS011;51369;49.862;9.908;2022-08-19T12:00:43;6.88;;;4.25;;
64875;SDS011;51369;49.862;9.908;2022-08-19T12:03:10;6.78;;;4.07;;
64875;SDS011;51369;49.862;9.908;2022-08-19T12:05:37;5.65;;;4.05;;
64875;SDS011;51369;49.862;9.908;2022-08-19T12:08:04;6.03;;;4.90;;
64875;SDS011;51369;49.862;9.908;2022-08-19T12:10:31;4.97;;;4.45;;
64875;SDS011;51369;49.862;9.908;2022-08-19T12:12:57;4.22;;;3.83;;
64875;SDS011;51369;49.862;9.908;2022-08-19T12:15:22;4.53;;;3.95;;
64875;SDS011;51369;49.862;9.908;2022-08-19T12:17:48;9.88;;;4.38;;
64875;SDS011;51369;49.862;9.908;2022-08-19T12:20:13;6.97;;;4.38;;
64875;SDS011;51369;49.862;9.908;2022-08-19T12:22:42;7.47;;;4.25;;
64875;SDS011;51369;49.862;9.908;2022-08-19T12:25:09;8.10;;;4.20;;
64875;SDS011;51369;49.862;9.908;2022-08-19T12:27:36;6.22;;;4.25;;
64875;SDS011;51369;49.862;9.908;2022-08-19T12:30:04;4.25;;;3.75;;
64875;SDS011;51369;49.862;9.908;2022-08-19T12:32:31;5.20;;;4.40;;
64875;SDS011;51369;49.862;9.908;2022-08-19T12:34:57;4.95;;;4.15;;
64875;SDS011;51369;49.862;9.908;2022-08-19T12:37:23;4.45;;;3.63;;
64875;SDS011;51369;49.862;9.908;2022-08-19T12:39:49;3.33;;;2.97;;
64875;SDS011;51369;49.862;9.908;2022-08-19T12:42:14;3.90;;;2.90;;
64875;SDS011;51369;49.862;9.908;2022-08-19T12:44:41;3.22;;;2.88;;
64875;SDS011;51369;49.862;9.908;2022-08-19T12:47:08;3.45;;;2.85;;
64875;SDS011;51369;49.862;9.908;2022-08-19T12:49:35;3.75;;;2.97;;
64875;SDS011;51369;49.862;9.908;2022-08-19T12:52:05;7.93;;;2.90;;
64875;SDS011;51369;49.862;9.908;2022-08-19T12:54:33;4.73;;;2.60;;
64875;SDS011;51369;49.862;9.908;2022-08-19T12:56:59;5.20;;;2.67;;
64875;SDS011;51369;49.862;9.908;2022-08-19T12:59:25;2.88;;;2.60;;
64875;SDS011;51369;49.862;9.908;2022-08-19T13:01:52;4.43;;;2.92;;
64875;SDS011;51369;49.862;9.908;2022-08-19T13:04:17;3.60;;;2.78;;
64875;SDS011;51369;49.862;9.908;2022-08-19T13:06:43;2.92;;;2.60;;
64875;SDS011;51369;49.862;9.908;2022-08-19T13:09:09;3.33;;;3.03;;
64875;SDS011;51369;49.862;9.908;2022-08-19T13:11:35;7.20;;;2.95;;
64875;SDS011;51369;49.862;9.908;2022-08-19T13:14:03;3.53;;;2.80;;
64875;SDS011;51369;49.862;9.908;2022-08-19T13:16:29;4.45;;;2.80;;
64875;SDS011;51369;49.862;9.908;2022-08-19T13:18:55;5.93;;;3.13;;
64875;SDS011;51369;49.862;9.908;2022-08-19T13:21:26;5.85;;;3.38;;
64875;SDS011;51369;49.862;9.908;2022-08-19T13:23:56;4.90;;;3.08;;
64875;SDS011;51369;49.862;9.908;2022-08-19T13:26:22;6.30;;;2.95;;
64875;SDS011;51369;49.862;9.908;2022-08-19T13:28:48;3.80;;;3.40;;
64875;SDS011;51369;49.862;9.908;2022-08-19T13:31:33;3.40;;;3.08;;
64875;SDS011;51369;49.862;9.908;2022-08-19T13:34:25;4.00;;;2.97;;
64875;SDS011;51369;49.862;9.908;2022-08-19T13:36:58;4.40;;;3.17;;
64875;SDS011;51369;49.862;9.908;2022-08-19T13:39:24;4.55;;;2.80;;
64875;SDS011;51369;49.862;9.908;2022-08-19T13:41:50;3.35;;;2.78;;
64875;SDS011;51369;49.862;9.908;2022-08-19T13:44:16;2.83;;;2.63;;
64875;SDS011;51369;49.862;9.908;2022-08-19T13:46:46;4.95;;;2.35;;
64875;SDS011;51369;49.862;9.908;2022-08-19T13:49:13;3.35;;;2.70;;
64875;SDS011;51369;49.862;9.908;2022-08-19T13:51:41;5.40;;;2.78;;
64875;SDS011;51369;49.862;9.908;2022-08-19T13:54:08;2.90;;;2.58;;
64875;SDS011;51369;49.862;9.908;2022-08-19T13:56:35;4.07;;;2.72;;
64875;SDS011;51369;49.862;9.908;2022-08-19T13:59:05;4.50;;;2.72;;
64875;SDS011;51369;49.862;9.908;2022-08-19T14:01:31;4.60;;;2.60;;
64875;SDS011;51369;49.862;9.908;2022-08-19T14:03:56;3.78;;;2.83;;
64875;SDS011;51369;49.862;9.908;2022-08-19T14:06:22;3.97;;;2.88;;
64875;SDS011;51369;49.862;9.908;2022-08-19T14:08:48;4.15;;;2.97;;
64875;SDS011;51369;49.862;9.908;2022-08-19T14:11:14;3.28;;;2.80;;
64875;SDS011;51369;49.862;9.908;2022-08-19T14:13:40;3.25;;;2.70;;
64875;SDS011;51369;49.862;9.908;2022-08-19T14:16:06;7.47;;;2.58;;
64875;SDS011;51369;49.862;9.908;2022-08-19T14:18:34;2.92;;;2.33;;
64875;SDS011;51369;49.862;9.908;2022-08-19T14:20:59;5.85;;;2.30;;
64875;SDS011;51369;49.862;9.908;2022-08-19T14:23:24;14.40;;;3.33;;
64875;SDS011;51369;49.862;9.908;2022-08-19T14:25:50;3.08;;;2.70;;
64875;SDS011;51369;49.862;9.908;2022-08-19T14:28:16;4.05;;;2.38;;
64875;SDS011;51369;49.862;9.908;2022-08-19T14:30:41;3.60;;;3.15;;
64875;SDS011;51369;49.862;9.908;2022-08-19T14:33:09;5.53;;;2.70;;
64875;SDS011;51369;49.862;9.908;2022-08-19T14:35:35;5.25;;;2.47;;
64875;SDS011;51369;49.862;9.908;2022-08-19T14:38:02;2.70;;;2.35;;
64875;SDS011;51369;49.862;9.908;2022-08-19T14:40:30;2.65;;;2.45;;
64875;SDS011;51369;49.862;9.908;2022-08-19T14:42:57;2.80;;;2.53;;
64875;SDS011;51369;49.862;9.908;2022-08-19T14:45:29;2.50;;;2.30;;
64875;SDS011;51369;49.862;9.908;2022-08-19T14:50:26;3.50;;;2.38;;